Time;durP1;ratioP1;P1;durP2;ratioP2;P2;SDS_P1;SDS_P2;PMS_P1;PMS_P2;Temp;Humidity;BMP_temperature;BMP_pressure;BME280_temperature;BME280_humidity;BME280_pressure;Samples;Min_cycle;Max_cycle;Signal;HPM_P1;HPM_P2
2022/07/25 00:01:41;;;;;;;5.20;4.70;;;29.80;93.30;;;;;;5130271;28;20039;-73
2022/07/25 00:04:11;;;;;;;5.20;4.53;;;29.80;93.30;;;;;;5129805;28;20088;-73
2022/07/25 00:06:39;;;;;;;4.82;4.32;;;29.80;93.10;;;;;;5130265;28;20096;-73
2022/07/25 00:09:07;;;;;;;4.80;3.80;;;29.80;92.90;;;;;;5131655;28;20073;-73
2022/07/25 00:11:34;;;;;;;5.57;4.30;;;29.80;92.60;;;;;;5130899;28;20047;-72
2022/07/25 00:14:02;;;;;;;5.10;4.22;;;29.90;92.30;;;;;;5130292;28;20043;-72
2022/07/25 00:16:30;;;;;;;5.22;4.72;;;29.90;92.20;;;;;;5130918;28;20554;-73
2022/07/25 00:18:58;;;;;;;6.22;5.63;;;29.90;92.30;;;;;;5112355;28;20504;-73
2022/07/25 00:21:26;;;;;;;7.03;6.30;;;29.90;92.50;;;;;;5129257;28;20523;-73
2022/07/25 00:23:53;;;;;;;8.45;7.55;;;29.90;92.40;;;;;;5112443;28;20708;-72
2022/07/25 00:26:21;;;;;;;10.02;7.25;;;29.90;92.30;;;;;;5112634;28;20047;-73
2022/07/25 00:28:48;;;;;;;8.07;6.80;;;29.90;92.50;;;;;;5129670;28;20051;-72
2022/07/25 00:31:16;;;;;;;6.50;5.90;;;29.90;93.00;;;;;;5113331;28;20401;-72
2022/07/25 00:33:44;;;;;;;6.72;6.07;;;29.90;93.10;;;;;;5132427;27;20047;-73
2022/07/25 00:36:11;;;;;;;6.03;5.43;;;29.90;93.10;;;;;;5133537;27;20043;-73
2022/07/25 00:38:39;;;;;;;7.40;6.35;;;29.80;93.10;;;;;;5132236;27;20086;-72
2022/07/25 00:41:07;;;;;;;6.15;5.53;;;29.80;93.00;;;;;;5132547;27;20047;-73
2022/07/25 00:43:34;;;;;;;7.32;5.15;;;29.80;92.90;;;;;;5116508;27;20552;-73
2022/07/25 00:46:02;;;;;;;7.55;5.43;;;29.80;92.80;;;;;;5133396;27;20039;-72
2022/07/25 00:48:29;;;;;;;7.90;5.47;;;29.80;92.70;;;;;;5134828;27;20042;-73
2022/07/25 00:50:58;;;;;;;7.80;5.20;;;29.70;92.60;;;;;;5116211;27;20123;-72
2022/07/25 00:53:26;;;;;;;6.15;4.85;;;29.70;92.50;;;;;;5132760;27;20043;-72
2022/07/25 00:55:53;;;;;;;6.13;4.95;;;29.70;92.40;;;;;;5132652;27;20047;-73
2022/07/25 00:58:21;;;;;;;6.00;4.70;;;29.60;92.50;;;;;;5133413;27;20073;-73
2022/07/25 01:00:49;;;;;;;6.20;5.10;;;29.60;92.80;;;;;;5134668;27;20035;-73
2022/07/25 01:03:17;;;;;;;6.10;5.13;;;29.60;93.30;;;;;;5116558;27;20085;-72
2022/07/25 01:05:44;;;;;;;5.97;5.45;;;29.60;93.80;;;;;;5115645;27;20138;-73
2022/07/25 01:08:17;;;;;;;6.45;5.82;;;29.60;94.20;;;;;;5099654;27;20043;-72
2022/07/25 01:10:46;;;;;;;7.05;6.18;;;29.60;94.60;;;;;;5134403;27;20135;-73
2022/07/25 01:13:13;;;;;;;8.55;6.30;;;29.60;94.90;;;;;;5134306;27;20035;-72
2022/07/25 01:15:42;;;;;;;6.43;5.82;;;29.60;95.00;;;;;;5133168;27;20043;-72
2022/07/25 01:18:09;;;;;;;8.48;6.75;;;29.50;95.10;;;;;;5133063;27;20114;-72
2022/07/25 01:20:37;;;;;;;7.55;5.65;;;29.50;95.10;;;;;;5116093;27;20146;-72
2022/07/25 01:23:04;;;;;;;7.78;5.88;;;29.40;95.00;;;;;;5116161;27;20142;-72
2022/07/25 01:25:32;;;;;;;5.78;5.22;;;29.40;95.00;;;;;;5115929;27;20137;-72
2022/07/25 01:27:59;;;;;;;5.93;5.43;;;29.30;95.00;;;;;;5132910;27;20075;-72
2022/07/25 01:30:27;;;;;;;7.63;5.38;;;29.30;95.10;;;;;;5133021;27;20047;-73
2022/07/25 01:32:54;;;;;;;5.47;4.90;;;29.20;95.10;;;;;;5133069;27;20061;-72
2022/07/25 01:35:22;;;;;;;7.03;5.25;;;29.20;95.00;;;;;;5115921;27;20073;-72
2022/07/25 01:37:50;;;;;;;7.30;6.53;;;29.20;95.00;;;;;;5115528;27;20075;-73
2022/07/25 01:40:17;;;;;;;6.60;5.80;;;29.20;95.00;;;;;;5132704;27;20051;-73
2022/07/25 01:42:45;;;;;;;6.25;5.65;;;29.20;95.10;;;;;;5133788;27;20074;-73
2022/07/25 01:45:13;;;;;;;7.25;6.40;;;29.20;95.00;;;;;;5134046;27;20078;-73
2022/07/25 01:47:40;;;;;;;5.60;4.95;;;29.20;94.80;;;;;;5132646;27;20104;-73
2022/07/25 01:50:08;;;;;;;5.57;4.53;;;29.20;94.40;;;;;;5132509;27;20055;-73
2022/07/25 01:52:38;;;;;;;5.53;4.80;;;29.10;94.00;;;;;;5133798;27;20134;-72
2022/07/25 01:55:06;;;;;;;7.00;5.22;;;29.10;93.40;;;;;;5132666;27;20055;-72
2022/07/25 01:57:34;;;;;;;7.00;5.20;;;29.00;93.20;;;;;;5115316;27;20055;-72
2022/07/25 02:00:05;;;;;;;5.30;4.80;;;29.00;93.00;;;;;;5115139;27;20377;-72
2022/07/25 02:02:39;;;;;;;5.15;4.65;;;29.00;92.60;;;;;;5132418;27;20082;-72
2022/07/25 02:05:08;;;;;;;6.18;4.93;;;28.90;92.30;;;;;;5132223;27;20047;-72
2022/07/25 02:07:36;;;;;;;6.00;4.68;;;28.90;92.10;;;;;;5132242;27;20039;-72
2022/07/25 02:10:06;;;;;;;5.32;4.82;;;28.90;92.20;;;;;;5132068;27;20046;-73
2022/07/25 02:12:33;;;;;;;5.55;5.05;;;28.90;92.40;;;;;;5131980;27;20043;-72
2022/07/25 02:15:01;;;;;;;5.47;4.97;;;28.80;92.50;;;;;;5131823;27;20035;-72
2022/07/25 02:17:29;;;;;;;5.60;5.10;;;28.80;92.50;;;;;;5132218;27;20047;-73
2022/07/25 02:19:56;;;;;;;7.57;4.88;;;28.80;92.60;;;;;;5114609;27;20500;-72
2022/07/25 02:22:24;;;;;;;6.35;4.78;;;28.80;92.70;;;;;;5132080;27;20088;-72
2022/07/25 02:24:51;;;;;;;5.53;4.80;;;28.70;92.70;;;;;;5114866;27;20444;-72
2022/07/25 02:27:19;;;;;;;8.30;5.78;;;28.70;92.90;;;;;;5131725;27;20115;-72
2022/07/25 02:29:46;;;;;;;8.20;5.05;;;28.70;93.10;;;;;;5131194;27;20112;-73
2022/07/25 02:32:14;;;;;;;6.18;5.68;;;28.60;93.40;;;;;;5115110;27;20137;-73
2022/07/25 02:34:41;;;;;;;6.13;5.53;;;28.60;93.60;;;;;;5131602;27;20054;-73
2022/07/25 02:37:09;;;;;;;6.25;5.05;;;28.60;93.80;;;;;;5097624;27;20087;-72
2022/07/25 02:39:36;;;;;;;6.45;5.63;;;28.60;93.90;;;;;;5114135;27;20065;-72
2022/07/25 02:42:04;;;;;;;5.82;5.18;;;28.60;93.90;;;;;;5132438;27;20053;-72
2022/07/25 02:44:31;;;;;;;8.38;5.57;;;28.60;94.10;;;;;;5114460;27;20078;-73
2022/07/25 02:46:59;;;;;;;5.70;5.10;;;28.60;94.40;;;;;;5114537;27;20059;-72
2022/07/25 02:49:26;;;;;;;7.07;5.55;;;28.60;94.30;;;;;;5131285;27;20043;-72
2022/07/25 02:51:56;;;;;;;6.22;4.97;;;28.60;94.40;;;;;;5132307;27;20039;-72
2022/07/25 02:54:23;;;;;;;5.97;5.45;;;28.60;94.50;;;;;;5130689;27;20071;-72
2022/07/25 02:56:51;;;;;;;5.28;4.78;;;28.60;94.60;;;;;;5131075;27;20057;-72
2022/07/25 02:59:18;;;;;;;6.32;5.70;;;28.60;94.70;;;;;;5132350;27;20070;-72
2022/07/25 03:01:46;;;;;;;6.63;5.55;;;28.60;94.80;;;;;;5113831;27;20055;-72
2022/07/25 03:04:14;;;;;;;7.82;6.03;;;28.60;94.80;;;;;;5113821;27;20071;-72
2022/07/25 03:06:41;;;;;;;7.35;5.68;;;28.60;94.80;;;;;;5131027;27;20043;-72
2022/07/25 03:09:09;;;;;;;7.65;6.25;;;28.70;94.90;;;;;;5130868;27;20051;-73
2022/07/25 03:11:36;;;;;;;6.97;6.28;;;28.70;94.90;;;;;;5131261;27;20058;-72
2022/07/25 03:14:04;;;;;;;8.00;6.50;;;28.70;94.90;;;;;;5132172;27;20389;-72
2022/07/25 03:16:31;;;;;;;7.20;6.57;;;28.60;94.80;;;;;;5130921;27;20050;-73
2022/07/25 03:18:59;;;;;;;9.68;7.28;;;28.60;94.70;;;;;;5132198;27;20043;-72
2022/07/25 03:21:26;;;;;;;7.57;6.72;;;28.60;94.70;;;;;;5131949;27;20055;-72
2022/07/25 03:23:54;;;;;;;7.82;6.10;;;28.60;94.70;;;;;;5130435;27;20126;-72
2022/07/25 03:26:21;;;;;;;7.30;6.55;;;28.60;94.70;;;;;;5130905;27;20142;-72
2022/07/25 03:28:49;;;;;;;7.57;6.53;;;28.60;94.70;;;;;;5130706;27;20060;-73
2022/07/25 03:31:16;;;;;;;8.30;6.40;;;28.60;94.80;;;;;;5130668;27;20041;-72
2022/07/25 03:33:45;;;;;;;7.28;6.57;;;28.60;94.90;;;;;;5129955;27;20138;-72
2022/07/25 03:36:12;;;;;;;7.72;6.90;;;28.60;95.00;;;;;;5113986;28;20096;-72
2022/07/25 03:38:40;;;;;;;8.15;7.32;;;28.50;95.00;;;;;;5130388;28;20517;-73
2022/07/25 03:41:07;;;;;;;8.20;7.38;;;28.50;95.00;;;;;;5130779;28;20058;-72
2022/07/25 03:43:35;;;;;;;9.43;7.55;;;28.50;95.20;;;;;;5130511;28;20058;-73
2022/07/25 03:46:02;;;;;;;9.13;7.32;;;28.50;95.20;;;;;;5096691;28;20370;-72
2022/07/25 03:48:30;;;;;;;8.98;7.25;;;28.50;95.20;;;;;;5096498;28;20419;-72
2022/07/25 03:50:57;;;;;;;8.82;7.93;;;28.40;95.20;;;;;;5130533;28;20035;-72
2022/07/25 03:53:26;;;;;;;8.15;6.78;;;28.50;95.30;;;;;;5131773;28;20119;-72
2022/07/25 03:55:53;;;;;;;9.40;7.25;;;28.50;95.50;;;;;;5131387;28;20154;-72
2022/07/25 03:58:21;;;;;;;12.07;7.65;;;28.50;95.60;;;;;;5131996;28;20043;-72
2022/07/25 04:00:49;;;;;;;9.98;7.75;;;28.50;95.70;;;;;;5113563;28;20051;-72
2022/07/25 04:03:16;;;;;;;13.73;9.45;;;28.60;95.80;;;;;;5130455;28;20515;-72
2022/07/25 04:05:44;;;;;;;9.48;8.40;;;28.60;95.80;;;;;;5096877;27;20133;-72
2022/07/25 04:08:13;;;;;;;10.95;9.30;;;28.60;96.00;;;;;;5135832;27;20046;-73
2022/07/25 04:10:41;;;;;;;10.90;9.35;;;28.60;96.10;;;;;;5117844;27;20446;-72
2022/07/25 04:13:09;;;;;;;11.85;10.65;;;28.60;96.30;;;;;;5100483;27;20062;-72
2022/07/25 04:15:36;;;;;;;14.35;11.05;;;28.60;96.60;;;;;;5117398;27;20103;-74
2022/07/25 04:18:04;;;;;;;12.48;11.27;;;28.60;96.80;;;;;;5133976;27;20031;-72
2022/07/25 04:20:31;;;;;;;13.85;12.45;;;28.70;97.10;;;;;;5133741;27;20054;-73
2022/07/25 04:22:59;;;;;;;14.68;11.63;;;28.70;97.20;;;;;;5134643;27;20524;-72
2022/07/25 04:25:26;;;;;;;13.02;11.63;;;28.80;97.20;;;;;;5100359;27;20043;-72
2022/07/25 04:27:54;;;;;;;12.32;10.82;;;28.90;97.10;;;;;;5117036;27;20050;-72
2022/07/25 04:30:21;;;;;;;9.63;8.40;;;29.00;97.10;;;;;;5117005;27;20058;-73
2022/07/25 04:32:49;;;;;;;10.00;8.50;;;29.10;97.50;;;;;;5100219;27;20115;-72
2022/07/25 04:35:16;;;;;;;9.40;8.50;;;29.20;97.10;;;;;;5117294;27;20085;-73
2022/07/25 04:37:44;;;;;;;11.85;9.30;;;29.30;97.10;;;;;;5100011;27;20047;-73
2022/07/25 04:40:12;;;;;;;12.82;9.52;;;29.40;97.10;;;;;;5133799;27;20051;-73
2022/07/25 04:42:39;;;;;;;13.90;8.57;;;29.50;97.10;;;;;;5134096;27;20054;-72
2022/07/25 04:45:07;;;;;;;12.40;9.27;;;29.60;97.00;;;;;;5133783;27;20042;-73
2022/07/25 04:47:35;;;;;;;10.70;9.55;;;29.70;96.90;;;;;;5116918;27;20054;-73
2022/07/25 04:50:03;;;;;;;9.40;7.82;;;29.80;96.90;;;;;;5134638;27;20043;-73
2022/07/25 04:52:30;;;;;;;15.65;9.35;;;29.80;96.90;;;;;;5134893;27;20043;-73
2022/07/25 04:54:58;;;;;;;10.63;7.95;;;29.90;96.80;;;;;;5133793;27;20043;-73
2022/07/25 04:57:25;;;;;;;8.75;7.95;;;30.00;96.70;;;;;;5133212;27;20035;-73
2022/07/25 04:59:53;;;;;;;10.48;7.95;;;30.10;96.60;;;;;;5097917;27;20054;-73
2022/07/25 05:02:21;;;;;;;10.43;9.38;;;30.30;96.60;;;;;;5131993;27;20046;-73
2022/07/25 05:04:48;;;;;;;10.48;7.97;;;30.40;96.40;;;;;;5133151;27;20036;-74
2022/07/25 05:07:19;;;;;;;12.15;8.15;;;30.50;96.30;;;;;;5131344;27;20043;-73
2022/07/25 05:09:47;;;;;;;9.57;7.15;;;30.60;96.20;;;;;;5131010;27;20043;-73
2022/07/25 05:12:14;;;;;;;10.35;8.43;;;30.70;96.20;;;;;;5134442;27;20042;-73
2022/07/25 05:14:42;;;;;;;8.32;7.50;;;30.80;96.10;;;;;;5133174;27;20043;-73
2022/07/25 05:17:10;;;;;;;12.40;8.27;;;30.90;96.00;;;;;;5115528;27;20155;-73
2022/07/25 05:19:38;;;;;;;9.02;8.20;;;31.00;96.20;;;;;;5133232;27;20061;-73
2022/07/25 05:22:05;;;;;;;7.88;7.07;;;31.10;96.20;;;;;;5133100;27;20397;-73
2022/07/25 05:24:34;;;;;;;11.15;7.07;;;31.10;96.20;;;;;;5115989;27;20039;-73
2022/07/25 05:27:03;;;;;;;8.27;7.50;;;31.20;96.00;;;;;;5099094;27;20504;-73
2022/07/25 05:29:31;;;;;;;8.93;7.45;;;31.30;95.70;;;;;;5132794;27;20527;-73
2022/07/25 05:31:59;;;;;;;8.80;7.38;;;31.20;95.60;;;;;;5132881;27;20051;-74
2022/07/25 05:34:26;;;;;;;7.10;6.38;;;31.40;95.40;;;;;;5133193;27;20039;-73
2022/07/25 05:36:54;;;;;;;8.23;6.57;;;31.50;95.30;;;;;;5132957;27;20473;-73
2022/07/25 05:39:21;;;;;;;8.90;6.85;;;31.60;95.10;;;;;;5132449;27;20392;-73
2022/07/25 05:41:49;;;;;;;7.60;6.80;;;31.60;94.80;;;;;;5132839;27;20053;-73
2022/07/25 05:44:16;;;;;;;9.02;6.32;;;31.70;94.80;;;;;;5098823;27;20074;-73
2022/07/25 05:46:44;;;;;;;6.72;5.95;;;31.80;94.60;;;;;;5133916;27;20050;-73
2022/07/25 05:49:12;;;;;;;6.10;5.18;;;31.90;94.10;;;;;;5132586;27;20076;-73
2022/07/25 05:51:39;;;;;;;9.98;5.72;;;32.00;93.60;;;;;;5133723;27;20449;-73
2022/07/25 05:54:07;;;;;;;7.30;5.30;;;32.10;93.20;;;;;;5132685;27;20046;-73
2022/07/25 05:56:35;;;;;;;6.53;4.80;;;32.10;92.90;;;;;;5133797;27;20043;-73
2022/07/25 05:59:02;;;;;;;9.00;6.13;;;32.30;92.70;;;;;;5098434;27;20053;-73
2022/07/25 06:01:30;;;;;;;6.95;4.95;;;32.30;92.20;;;;;;5115319;27;20572;-73
2022/07/25 06:03:57;;;;;;;8.07;5.47;;;32.50;91.50;;;;;;5133268;27;20062;-73
2022/07/25 06:06:25;;;;;;;7.32;4.63;;;32.60;91.10;;;;;;5131995;27;20043;-74
2022/07/25 06:08:53;;;;;;;5.65;4.20;;;32.60;90.70;;;;;;5115011;27;20047;-73
2022/07/25 06:11:20;;;;;;;5.97;4.38;;;32.70;90.40;;;;;;5133199;27;20092;-73
2022/07/25 06:13:48;;;;;;;4.70;4.10;;;32.80;90.30;;;;;;5131871;27;20503;-73
2022/07/25 06:16:15;;;;;;;6.13;4.60;;;32.80;90.20;;;;;;5133335;27;20470;-73
2022/07/25 06:18:43;;;;;;;5.78;4.80;;;32.90;90.50;;;;;;5131984;27;20031;-74
2022/07/25 06:21:10;;;;;;;8.23;4.72;;;33.10;90.30;;;;;;5132066;27;20118;-73
2022/07/25 06:23:38;;;;;;;5.75;4.45;;;33.10;90.40;;;;;;5115085;27;20035;-73
2022/07/25 06:26:09;;;;;;;9.68;4.30;;;33.30;90.20;;;;;;5131997;27;20055;-73
2022/07/25 06:28:40;;;;;;;6.18;4.43;;;33.40;89.80;;;;;;5131543;27;20119;-72
2022/07/25 06:31:08;;;;;;;9.88;4.70;;;33.40;89.60;;;;;;5114351;27;20042;-73
2022/07/25 06:33:38;;;;;;;8.50;4.82;;;33.50;89.30;;;;;;5131702;27;20044;-74
2022/07/25 06:36:06;;;;;;;9.00;5.03;;;33.60;89.40;;;;;;5097971;27;20049;-75
2022/07/25 06:38:33;;;;;;;7.65;5.07;;;33.70;89.20;;;;;;5131182;27;20509;-73
2022/07/25 06:41:01;;;;;;;5.55;4.53;;;33.80;88.50;;;;;;5132637;27;20054;-72
2022/07/25 06:43:29;;;;;;;4.97;4.45;;;34.00;88.60;;;;;;5132450;27;20496;-73
2022/07/25 06:45:57;;;;;;;5.75;4.07;;;34.00;87.50;;;;;;5130932;27;20035;-72
2022/07/25 06:48:24;;;;;;;8.50;4.57;;;34.10;85.90;;;;;;5114339;27;20504;-73
2022/07/25 06:50:52;;;;;;;6.38;5.30;;;34.10;85.30;;;;;;5131373;27;20035;-73
2022/07/25 06:53:19;;;;;;;7.95;4.32;;;34.10;85.50;;;;;;5131345;27;20565;-72
2022/07/25 06:55:47;;;;;;;5.25;4.35;;;34.20;85.30;;;;;;5132300;27;20101;-73
2022/07/25 06:58:14;;;;;;;6.65;4.70;;;34.20;84.80;;;;;;5131195;27;20043;-72
2022/07/25 07:00:42;;;;;;;7.13;4.10;;;34.30;85.00;;;;;;5131240;27;20527;-73
2022/07/25 07:03:09;;;;;;;5.10;4.25;;;34.40;84.50;;;;;;5114428;27;20067;-73
2022/07/25 07:05:38;;;;;;;6.30;5.03;;;34.50;83.70;;;;;;5132166;27;20067;-75
2022/07/25 07:08:06;;;;;;;9.38;4.78;;;34.60;83.40;;;;;;5114129;27;20039;-73
2022/07/25 07:10:34;;;;;;;6.05;4.05;;;34.70;82.80;;;;;;5132330;27;20043;-72
2022/07/25 07:13:07;;;;;;;5.40;4.80;;;34.70;82.00;;;;;;5130985;27;20043;-72
2022/07/25 07:15:35;;;;;;;6.65;4.63;;;34.60;82.40;;;;;;5097237;27;20045;-72
2022/07/25 07:18:05;;;;;;;6.95;4.32;;;34.60;82.30;;;;;;5114013;27;20050;-73
2022/07/25 07:20:32;;;;;;;7.18;4.50;;;34.70;82.30;;;;;;5131074;27;20070;-72
2022/07/25 07:23:00;;;;;;;5.93;4.38;;;34.60;81.90;;;;;;5113956;27;20100;-72
2022/07/25 07:25:28;;;;;;;8.07;4.85;;;34.70;80.10;;;;;;5130470;27;20138;-73
2022/07/25 07:27:56;;;;;;;6.45;4.55;;;34.60;80.30;;;;;;5130749;27;20043;-73
2022/07/25 07:30:27;;;;;;;9.95;4.30;;;34.70;80.30;;;;;;5096831;27;20047;-73
2022/07/25 07:33:04;;;;;;;5.88;4.45;;;34.80;80.70;;;;;;5130866;27;20063;-72
2022/07/25 07:35:31;;;;;;;6.13;4.03;;;34.60;79.60;;;;;;5130604;27;20054;-73
2022/07/25 07:37:59;;;;;;;7.40;4.03;;;34.70;79.90;;;;;;5131823;27;20087;-72
2022/07/25 07:40:27;;;;;;;6.20;4.07;;;34.80;79.50;;;;;;5134118;27;20552;-73
2022/07/25 07:42:56;;;;;;;5.68;4.93;;;34.70;77.40;;;;;;5116373;27;20057;-72
2022/07/25 07:45:24;;;;;;;5.30;4.05;;;34.80;78.40;;;;;;5134524;27;20043;-73
2022/07/25 07:47:54;;;;;;;6.53;3.88;;;34.80;78.70;;;;;;5116691;27;20066;-72
2022/07/25 07:50:25;;;;;;;7.60;4.10;;;34.80;78.20;;;;;;5133813;27;20571;-72
2022/07/25 07:52:55;;;;;;;6.25;3.63;;;34.70;79.00;;;;;;5100444;27;20506;-72
2022/07/25 07:58:10;;;;;;;7.68;4.30;;;34.70;78.00;;;;;;5133857;27;20538;-72
2022/07/25 08:00:38;;;;;;;4.63;4.03;;;34.70;77.50;;;;;;5134148;27;20126;-72
2022/07/25 08:03:07;;;;;;;7.63;4.22;;;34.80;77.90;;;;;;5133993;27;20160;-72
2022/07/25 08:05:40;;;;;;;5.68;4.55;;;35.00;77.50;;;;;;5116880;27;20043;-72
2022/07/25 08:08:12;;;;;;;7.55;4.80;;;35.00;77.50;;;;;;5116196;27;20051;-72
2022/07/25 08:10:43;;;;;;;6.03;4.40;;;35.10;77.10;;;;;;5152387;27;20556;-72
2022/07/25 08:13:19;;;;;;;4.90;4.40;;;35.30;77.60;;;;;;5116895;27;20038;-72
2022/07/25 08:15:49;;;;;;;5.45;4.80;;;35.30;76.90;;;;;;5116940;27;20043;-72
2022/07/25 08:18:18;;;;;;;6.45;4.13;;;35.40;77.30;;;;;;5152102;27;20392;-72
2022/07/25 08:20:47;;;;;;;9.25;4.60;;;35.60;76.20;;;;;;5152224;27;20480;-71
2022/07/25 08:23:16;;;;;;;6.68;5.28;;;35.70;76.50;;;;;;5133615;27;20046;-71
2022/07/25 08:25:45;;;;;;;6.18;4.68;;;35.80;77.90;;;;;;5116027;27;20381;-72
2022/07/25 08:28:13;;;;;;;5.50;4.45;;;35.90;78.30;;;;;;5133540;27;20529;-72
2022/07/25 08:30:41;;;;;;;7.88;6.07;;;35.90;77.40;;;;;;5152205;27;20047;-71
2022/07/25 08:33:20;;;;;;;5.85;5.05;;;36.00;77.00;;;;;;5116529;27;20046;-72
2022/07/25 08:35:53;;;;;;;5.80;4.97;;;36.00;75.90;;;;;;5133621;27;20042;-72
2022/07/25 08:38:22;;;;;;;5.63;5.05;;;35.70;74.70;;;;;;5116497;27;20134;-72
2022/07/25 08:40:52;;;;;;;5.47;4.72;;;35.70;75.40;;;;;;5117125;27;20043;-72
2022/07/25 08:43:20;;;;;;;7.47;5.53;;;35.70;76.40;;;;;;5133676;27;20448;-72
2022/07/25 08:45:53;;;;;;;7.13;5.40;;;35.70;76.30;;;;;;5116387;27;20055;-72
2022/07/25 08:48:23;;;;;;;6.20;5.60;;;35.80;76.30;;;;;;5133507;27;20045;-72
2022/07/25 08:50:51;;;;;;;9.48;6.03;;;35.90;75.70;;;;;;5133468;27;20043;-72
2022/07/25 08:53:20;;;;;;;10.02;5.85;;;36.10;75.40;;;;;;5118155;27;20035;-72
2022/07/25 08:56:05;;;;;;;6.75;5.78;;;36.20;75.30;;;;;;5122447;27;20047;-72
2022/07/25 08:58:36;;;;;;;6.60;5.90;;;36.30;74.70;;;;;;5120774;27;20049;-72
2022/07/25 09:01:04;;;;;;;7.90;6.53;;;36.30;73.40;;;;;;5136929;27;20057;-72
2022/07/25 09:03:35;;;;;;;8.25;5.35;;;36.30;72.40;;;;;;5120976;27;20680;-72
2022/07/25 09:06:19;;;;;;;9.15;6.18;;;36.30;72.90;;;;;;5137038;27;20047;-72
2022/07/25 09:08:51;;;;;;;7.93;5.80;;;36.30;74.40;;;;;;5155377;27;20038;-73
2022/07/25 09:11:26;;;;;;;7.05;5.65;;;36.30;74.30;;;;;;5120095;27;20073;-72
2022/07/25 09:14:09;;;;;;;7.13;6.43;;;36.30;72.40;;;;;;5136430;27;20039;-73
2022/07/25 09:16:42;;;;;;;7.28;5.63;;;36.40;72.50;;;;;;5119162;27;20104;-73
2022/07/25 09:19:14;;;;;;;6.70;6.00;;;36.40;72.50;;;;;;5119688;27;20055;-73
2022/07/25 09:21:44;;;;;;;7.40;6.13;;;36.60;72.30;;;;;;5136244;27;20082;-73
2022/07/25 09:24:16;;;;;;;7.68;6.65;;;36.50;72.30;;;;;;5136431;27;20050;-72
2022/07/25 09:26:49;;;;;;;7.85;6.00;;;36.70;72.10;;;;;;5136600;27;20042;-73
2022/07/25 09:29:29;;;;;;;6.95;6.25;;;36.70;71.30;;;;;;5136703;27;20058;-72
2022/07/25 09:31:58;;;;;;;10.55;6.90;;;36.70;71.00;;;;;;5118808;27;20050;-72
2022/07/25 09:34:34;;;;;;;7.47;5.60;;;36.40;71.40;;;;;;5118889;27;20047;-72
2022/07/25 09:37:11;;;;;;;7.75;5.68;;;36.30;71.50;;;;;;5136680;27;20396;-72
2022/07/25 09:39:47;;;;;;;7.30;5.55;;;36.30;72.00;;;;;;5119372;27;20054;-72
2022/07/25 09:42:25;;;;;;;8.02;5.35;;;36.30;71.50;;;;;;5154936;27;20039;-72
2022/07/25 09:45:11;;;;;;;7.97;5.80;;;36.20;70.90;;;;;;5136207;27;20528;-72
2022/07/25 09:47:55;;;;;;;7.80;6.25;;;36.20;70.30;;;;;;5136402;27;20035;-72
2022/07/25 09:50:24;;;;;;;6.55;5.80;;;36.40;69.50;;;;;;5136408;27;20042;-72
2022/07/25 09:52:54;;;;;;;7.07;5.78;;;36.40;69.40;;;;;;5136213;27;20527;-72
2022/07/25 09:55:22;;;;;;;5.97;5.38;;;36.40;69.30;;;;;;5154339;27;20035;-73
2022/07/25 09:57:53;;;;;;;6.75;6.05;;;36.40;69.50;;;;;;5118482;27;20057;-73
2022/07/25 10:00:24;;;;;;;9.25;6.18;;;36.40;69.20;;;;;;5136306;27;20126;-72
2022/07/25 10:03:15;;;;;;;8.30;6.18;;;36.40;69.40;;;;;;5136081;27;20180;-72
2022/07/25 10:06:14;;;;;;;5.80;5.20;;;36.40;69.00;;;;;;5135450;27;20051;-73
2022/07/25 10:08:43;;;;;;;8.23;5.32;;;36.60;68.80;;;;;;5118524;27;20134;-73
2022/07/25 10:11:22;;;;;;;6.93;5.45;;;36.70;68.50;;;;;;5101696;27;20054;-72
2022/07/25 10:13:51;;;;;;;7.40;5.50;;;36.70;68.80;;;;;;5135464;27;20057;-73
2022/07/25 10:16:26;;;;;;;6.28;5.28;;;36.80;69.20;;;;;;5118583;27;20055;-73
2022/07/25 10:18:57;;;;;;;8.40;5.78;;;36.80;68.20;;;;;;5118659;27;20073;-72
2022/07/25 10:21:27;;;;;;;7.93;5.70;;;36.60;67.40;;;;;;5135511;27;20043;-72
2022/07/25 10:24:07;;;;;;;6.88;5.30;;;36.70;67.20;;;;;;5135845;27;20050;-73
2022/07/25 10:26:49;;;;;;;8.13;4.90;;;36.70;66.90;;;;;;5118473;27;20039;-73
2022/07/25 10:29:17;;;;;;;9.35;5.82;;;36.80;66.20;;;;;;5135109;27;20046;-74
2022/07/25 10:31:45;;;;;;;6.43;5.43;;;36.60;66.00;;;;;;5153517;27;20050;-73
2022/07/25 10:34:27;;;;;;;7.00;5.78;;;36.70;66.40;;;;;;5135474;27;20066;-72
2022/07/25 10:36:56;;;;;;;9.80;6.95;;;36.80;66.60;;;;;;5135120;27;20115;-73
2022/07/25 10:39:23;;;;;;;7.85;6.43;;;36.80;66.50;;;;;;5153279;27;20078;-72
2022/07/25 10:41:53;;;;;;;10.65;7.13;;;36.60;65.70;;;;;;5153466;27;20034;-73
2022/07/25 10:44:21;;;;;;;8.75;6.97;;;36.60;66.80;;;;;;5135133;27;20045;-72
2022/07/25 10:46:49;;;;;;;8.57;6.47;;;36.50;67.40;;;;;;5118113;27;20488;-73
2022/07/25 10:49:24;;;;;;;9.30;7.65;;;36.50;67.50;;;;;;5101190;27;20051;-72
2022/07/25 10:52:02;;;;;;;8.82;6.38;;;36.60;66.90;;;;;;5153065;27;20043;-73
2022/07/25 10:54:35;;;;;;;15.27;7.40;;;36.70;66.70;;;;;;5118062;27;20399;-71
2022/07/25 10:57:05;;;;;;;10.18;6.38;;;36.70;67.30;;;;;;5134964;27;20437;-71
2022/07/25 10:59:38;;;;;;;9.90;5.72;;;36.80;67.10;;;;;;5134982;27;20058;-73
2022/07/25 11:02:11;;;;;;;6.13;5.30;;;36.70;67.50;;;;;;5100921;27;20051;-72
2022/07/25 11:04:38;;;;;;;9.88;6.00;;;36.80;68.50;;;;;;5134899;27;20066;-72
2022/07/25 11:07:11;;;;;;;7.53;6.47;;;36.70;68.30;;;;;;5153307;27;20087;-72
2022/07/25 11:09:41;;;;;;;9.05;6.88;;;36.80;68.10;;;;;;5134599;27;20083;-72
2022/07/25 11:12:13;;;;;;;6.57;5.97;;;36.70;68.80;;;;;;5117576;27;20046;-72
2022/07/25 11:14:41;;;;;;;7.03;5.10;;;36.70;69.40;;;;;;5134474;27;20377;-73
2022/07/25 11:17:18;;;;;;;7.68;5.85;;;36.70;69.00;;;;;;5117118;27;20038;-73
2022/07/25 11:20:02;;;;;;;10.43;6.40;;;36.60;69.90;;;;;;5134449;27;20039;-72
2022/07/25 11:22:31;;;;;;;10.80;6.32;;;36.50;68.90;;;;;;5133459;27;20069;-73
2022/07/25 11:25:00;;;;;;;9.15;5.90;;;36.50;69.40;;;;;;5134288;27;20046;-73
2022/07/25 11:27:30;;;;;;;7.30;5.28;;;36.50;69.30;;;;;;5134312;27;20167;-73
2022/07/25 11:30:08;;;;;;;7.90;6.07;;;36.50;68.70;;;;;;5152067;27;20556;-73
2022/07/25 11:32:57;;;;;;;9.77;5.85;;;36.40;68.70;;;;;;5151886;27;20042;-73
2022/07/25 11:35:28;;;;;;;8.00;5.05;;;36.40;69.60;;;;;;5116442;27;20423;-73
2022/07/25 11:38:00;;;;;;;7.25;5.25;;;36.40;68.60;;;;;;5116401;27;20046;-73
2022/07/25 11:40:31;;;;;;;7.97;6.00;;;36.40;69.10;;;;;;5116492;27;20059;-73
2022/07/25 11:42:59;;;;;;;8.13;5.30;;;36.40;68.60;;;;;;5133701;27;20046;-73
2022/07/25 11:45:36;;;;;;;6.40;5.40;;;36.40;68.50;;;;;;5133764;27;20046;-72
2022/07/25 11:48:11;;;;;;;7.95;6.25;;;36.40;68.90;;;;;;5116220;27;20566;-72
2022/07/25 11:50:41;;;;;;;7.55;5.85;;;36.40;69.80;;;;;;5133754;27;20046;-72
2022/07/25 11:53:13;;;;;;;10.15;5.93;;;36.30;69.80;;;;;;5133403;27;20496;-72
2022/07/25 11:55:41;;;;;;;5.82;5.22;;;36.40;69.80;;;;;;5151404;27;20038;-74
2022/07/25 11:58:11;;;;;;;6.57;5.22;;;36.20;69.20;;;;;;5116300;27;20089;-73
2022/07/25 12:00:42;;;;;;;6.60;5.38;;;36.30;69.70;;;;;;5116002;27;20047;-73
2022/07/25 12:03:15;;;;;;;6.22;4.85;;;36.30;68.30;;;;;;5151651;27;20035;-73
2022/07/25 12:05:46;;;;;;;7.50;5.50;;;36.20;68.40;;;;;;5099136;27;20050;-73
2022/07/25 12:08:19;;;;;;;6.10;5.15;;;36.20;68.80;;;;;;5116028;27;20492;-75
2022/07/25 12:10:49;;;;;;;8.90;5.70;;;36.20;68.40;;;;;;5098630;27;20039;-72
2022/07/25 12:13:29;;;;;;;6.18;5.18;;;36.30;67.80;;;;;;5133524;27;20047;-72
2022/07/25 12:15:59;;;;;;;7.88;5.60;;;36.30;67.60;;;;;;5132983;27;20070;-73
2022/07/25 12:18:27;;;;;;;6.40;5.60;;;36.20;67.70;;;;;;5116348;27;20111;-73
2022/07/25 12:20:56;;;;;;;7.18;5.03;;;36.20;65.80;;;;;;5116055;27;20047;-72
2022/07/25 12:23:24;;;;;;;6.20;4.93;;;36.00;65.40;;;;;;5151239;27;20073;-72
2022/07/25 12:25:53;;;;;;;13.02;5.57;;;35.80;65.10;;;;;;5115851;27;20065;-73
2022/07/25 12:28:20;;;;;;;14.75;6.80;;;35.80;65.70;;;;;;5134745;27;20042;-73
2022/07/25 12:30:49;;;;;;;82.63;75.82;;;35.80;64.90;;;;;;5136467;27;20046;-72
2022/07/25 12:33:20;;;;;;;13.63;11.57;;;35.70;64.40;;;;;;5137031;27;20058;-72
2022/07/25 12:35:48;;;;;;;11.30;8.50;;;35.80;65.20;;;;;;5102310;27;20051;-73
2022/07/25 12:38:16;;;;;;;9.32;7.45;;;35.80;64.20;;;;;;5136461;27;20042;-73
2022/07/25 12:40:44;;;;;;;82.75;73.97;;;35.80;65.60;;;;;;5119547;27;20463;-73
2022/07/25 12:43:12;;;;;;;96.20;86.32;;;35.80;65.70;;;;;;5119581;27;20047;-71
2022/07/25 12:45:41;;;;;;;55.80;49.63;;;35.90;65.60;;;;;;5136221;27;20169;-72
2022/07/25 12:48:12;;;;;;;26.45;22.73;;;35.80;63.90;;;;;;5102735;27;20107;-72
2022/07/25 12:50:44;;;;;;;34.20;29.80;;;35.70;63.30;;;;;;5155504;27;20039;-71
2022/07/25 12:53:12;;;;;;;17.05;15.35;;;35.60;64.60;;;;;;5139287;27;20046;-72
2022/07/25 12:55:40;;;;;;;11.02;9.85;;;35.70;64.90;;;;;;5157570;27;20035;-73
2022/07/25 12:58:09;;;;;;;12.13;10.93;;;35.60;64.90;;;;;;5142185;27;20101;-72
2022/07/25 13:00:36;;;;;;;12.82;10.00;;;35.80;65.40;;;;;;5131310;27;20050;-72